sensor_id;sensor_type;location;lat;lon;timestamp;P1;durP1;ratioP1;P2;durP2;ratioP2
146;SDS011;45999;48.808;9.182;2022-11-20T00:01:15;19.27;;;11.43;;
146;SDS011;45999;48.808;9.182;2022-11-20T00:03:46;13.60;;;9.63;;
146;SDS011;45999;48.808;9.182;2022-11-20T00:06:14;23.00;;;10.90;;
146;SDS011;45999;48.808;9.182;2022-11-20T00:08:42;154.47;;;15.93;;
146;SDS011;45999;48.808;9.182;2022-11-20T00:11:18;72.47;;;12.97;;
146;SDS011;45999;48.808;9.182;2022-11-20T00:13:47;177.53;;;17.63;;
146;SDS011;45999;48.808;9.182;2022-11-20T00:16:17;89.33;;;12.60;;
146;SDS011;45999;48.808;9.182;2022-11-20T00:18:45;52.80;;;11.57;;
146;SDS011;45999;48.808;9.182;2022-11-20T00:21:13;75.67;;;13.17;;
146;SDS011;45999;48.808;9.182;2022-11-20T00:23:42;22.37;;;10.93;;
146;SDS011;45999;48.808;9.182;2022-11-20T00:26:09;28.10;;;12.47;;
146;SDS011;45999;48.808;9.182;2022-11-20T00:28:37;30.40;;;11.63;;
146;SDS011;45999;48.808;9.182;2022-11-20T00:31:04;20.60;;;11.60;;
146;SDS011;45999;48.808;9.182;2022-11-20T00:33:32;16.73;;;11.00;;
146;SDS011;45999;48.808;9.182;2022-11-20T00:36:03;29.00;;;12.87;;
146;SDS011;45999;48.808;9.182;2022-11-20T00:38:31;22.77;;;11.70;;
146;SDS011;45999;48.808;9.182;2022-11-20T00:40:59;13.77;;;10.30;;
146;SDS011;45999;48.808;9.182;2022-11-20T00:43:29;14.97;;;11.53;;
146;SDS011;45999;48.808;9.182;2022-11-20T00:45:58;14.60;;;10.90;;
146;SDS011;45999;48.808;9.182;2022-11-20T00:48:25;16.27;;;11.43;;
146;SDS011;45999;48.808;9.182;2022-11-20T00:50:53;15.83;;;10.80;;
146;SDS011;45999;48.808;9.182;2022-11-20T00:53:20;14.13;;;10.80;;
146;SDS011;45999;48.808;9.182;2022-11-20T00:55:53;12.23;;;10.00;;
146;SDS011;45999;48.808;9.182;2022-11-20T00:58:31;10.93;;;9.40;;
146;SDS011;45999;48.808;9.182;2022-11-20T01:03:32;10.97;;;9.73;;
146;SDS011;45999;48.808;9.182;2022-11-20T01:06:00;7.87;;;6.93;;
146;SDS011;45999;48.808;9.182;2022-11-20T01:08:32;8.47;;;7.30;;
146;SDS011;45999;48.808;9.182;2022-11-20T01:11:03;7.50;;;6.27;;
146;SDS011;45999;48.808;9.182;2022-11-20T01:13:31;7.10;;;5.50;;
146;SDS011;45999;48.808;9.182;2022-11-20T01:16:14;7.67;;;5.37;;
146;SDS011;45999;48.808;9.182;2022-11-20T01:18:44;7.37;;;5.67;;
146;SDS011;45999;48.808;9.182;2022-11-20T01:21:15;6.23;;;5.63;;
146;SDS011;45999;48.808;9.182;2022-11-20T01:23:44;5.97;;;5.33;;
146;SDS011;45999;48.808;9.182;2022-11-20T01:26:15;5.33;;;4.80;;
146;SDS011;45999;48.808;9.182;2022-11-20T01:28:43;5.40;;;4.60;;
146;SDS011;45999;48.808;9.182;2022-11-20T01:31:13;4.47;;;3.93;;
146;SDS011;45999;48.808;9.182;2022-11-20T01:33:48;4.30;;;3.73;;
146;SDS011;45999;48.808;9.182;2022-11-20T01:36:16;4.70;;;3.40;;
146;SDS011;45999;48.808;9.182;2022-11-20T01:38:44;4.30;;;3.47;;
146;SDS011;45999;48.808;9.182;2022-11-20T01:41:10;3.80;;;3.40;;
146;SDS011;45999;48.808;9.182;2022-11-20T01:43:59;5.40;;;2.90;;
146;SDS011;45999;48.808;9.182;2022-11-20T01:46:25;4.00;;;2.97;;
146;SDS011;45999;48.808;9.182;2022-11-20T01:51:50;4.53;;;3.03;;
146;SDS011;45999;48.808;9.182;2022-11-20T01:54:19;4.17;;;3.07;;
146;SDS011;45999;48.808;9.182;2022-11-20T01:56:50;3.27;;;2.77;;
146;SDS011;45999;48.808;9.182;2022-11-20T01:59:20;4.30;;;3.40;;
146;SDS011;45999;48.808;9.182;2022-11-20T02:01:50;3.60;;;3.20;;
146;SDS011;45999;48.808;9.182;2022-11-20T02:04:16;4.13;;;3.03;;
146;SDS011;45999;48.808;9.182;2022-11-20T02:06:46;4.27;;;2.80;;
146;SDS011;45999;48.808;9.182;2022-11-20T02:09:15;5.37;;;3.03;;
146;SDS011;45999;48.808;9.182;2022-11-20T02:11:42;3.33;;;2.90;;
146;SDS011;45999;48.808;9.182;2022-11-20T02:14:08;4.17;;;3.10;;
146;SDS011;45999;48.808;9.182;2022-11-20T02:16:39;2.47;;;2.27;;
146;SDS011;45999;48.808;9.182;2022-11-20T02:19:20;3.60;;;2.40;;
146;SDS011;45999;48.808;9.182;2022-11-20T02:22:03;2.60;;;2.33;;
146;SDS011;45999;48.808;9.182;2022-11-20T02:24:37;2.60;;;1.90;;
146;SDS011;45999;48.808;9.182;2022-11-20T02:27:10;2.50;;;2.20;;
146;SDS011;45999;48.808;9.182;2022-11-20T02:30:00;2.20;;;2.00;;
146;SDS011;45999;48.808;9.182;2022-11-20T02:32:30;2.60;;;2.30;;
146;SDS011;45999;48.808;9.182;2022-11-20T02:35:05;3.00;;;2.30;;
146;SDS011;45999;48.808;9.182;2022-11-20T02:37:53;2.50;;;2.30;;
146;SDS011;45999;48.808;9.182;2022-11-20T02:40:21;5.57;;;3.20;;
146;SDS011;45999;48.808;9.182;2022-11-20T02:42:51;3.33;;;3.00;;
146;SDS011;45999;48.808;9.182;2022-11-20T02:45:22;3.77;;;2.77;;
146;SDS011;45999;48.808;9.182;2022-11-20T02:47:49;3.23;;;2.60;;
146;SDS011;45999;48.808;9.182;2022-11-20T02:50:16;2.87;;;2.37;;
146;SDS011;45999;48.808;9.182;2022-11-20T02:52:42;2.57;;;2.00;;
146;SDS011;45999;48.808;9.182;2022-11-20T02:55:09;2.40;;;2.20;;
146;SDS011;45999;48.808;9.182;2022-11-20T02:57:35;2.70;;;2.20;;
146;SDS011;45999;48.808;9.182;2022-11-20T03:00:02;2.23;;;1.97;;
146;SDS011;45999;48.808;9.182;2022-11-20T03:02:30;3.87;;;2.20;;
146;SDS011;45999;48.808;9.182;2022-11-20T03:04:57;3.93;;;2.20;;
146;SDS011;45999;48.808;9.182;2022-11-20T03:07:23;3.63;;;2.00;;
146;SDS011;45999;48.808;9.182;2022-11-20T03:09:50;2.47;;;2.27;;
146;SDS011;45999;48.808;9.182;2022-11-20T03:12:16;2.53;;;2.33;;
146;SDS011;45999;48.808;9.182;2022-11-20T03:14:42;2.33;;;1.90;;
146;SDS011;45999;48.808;9.182;2022-11-20T03:17:09;2.70;;;2.07;;
146;SDS011;45999;48.808;9.182;2022-11-20T03:19:36;4.20;;;2.20;;
146;SDS011;45999;48.808;9.182;2022-11-20T03:22:02;2.23;;;1.80;;
146;SDS011;45999;48.808;9.182;2022-11-20T03:24:28;4.27;;;3.10;;
146;SDS011;45999;48.808;9.182;2022-11-20T03:26:55;2.23;;;2.00;;
146;SDS011;45999;48.808;9.182;2022-11-20T03:29:21;2.80;;;2.37;;
146;SDS011;45999;48.808;9.182;2022-11-20T03:31:47;2.47;;;1.73;;
146;SDS011;45999;48.808;9.182;2022-11-20T03:34:14;3.53;;;2.40;;
146;SDS011;45999;48.808;9.182;2022-11-20T03:36:41;2.87;;;2.20;;
146;SDS011;45999;48.808;9.182;2022-11-20T03:39:08;2.67;;;2.40;;
146;SDS011;45999;48.808;9.182;2022-11-20T03:41:36;3.27;;;2.30;;
146;SDS011;45999;48.808;9.182;2022-11-20T03:44:05;2.93;;;2.70;;
146;SDS011;45999;48.808;9.182;2022-11-20T03:46:33;2.43;;;2.23;;
146;SDS011;45999;48.808;9.182;2022-11-20T03:49:00;2.97;;;2.67;;
146;SDS011;45999;48.808;9.182;2022-11-20T03:51:34;4.17;;;2.47;;
146;SDS011;45999;48.808;9.182;2022-11-20T03:54:03;2.60;;;2.23;;
146;SDS011;45999;48.808;9.182;2022-11-20T03:56:33;2.73;;;2.43;;
146;SDS011;45999;48.808;9.182;2022-11-20T03:59:01;2.83;;;2.40;;
146;SDS011;45999;48.808;9.182;2022-11-20T04:01:30;3.00;;;2.70;;
146;SDS011;45999;48.808;9.182;2022-11-20T04:03:57;4.03;;;2.80;;
146;SDS011;45999;48.808;9.182;2022-11-20T04:06:25;3.20;;;2.50;;
146;SDS011;45999;48.808;9.182;2022-11-20T04:08:54;3.03;;;2.77;;
146;SDS011;45999;48.808;9.182;2022-11-20T04:11:22;3.40;;;3.10;;
146;SDS011;45999;48.808;9.182;2022-11-20T04:13:52;2.90;;;2.70;;
146;SDS011;45999;48.808;9.182;2022-11-20T04:16:21;3.67;;;2.70;;
146;SDS011;45999;48.808;9.182;2022-11-20T04:18:52;4.43;;;3.20;;
146;SDS011;45999;48.808;9.182;2022-11-20T04:21:19;3.40;;;2.37;;
146;SDS011;45999;48.808;9.182;2022-11-20T04:23:46;2.50;;;2.30;;
146;SDS011;45999;48.808;9.182;2022-11-20T04:26:12;3.13;;;2.70;;
146;SDS011;45999;48.808;9.182;2022-11-20T04:28:39;3.23;;;2.90;;
146;SDS011;45999;48.808;9.182;2022-11-20T04:31:10;3.63;;;2.60;;
146;SDS011;45999;48.808;9.182;2022-11-20T04:33:38;2.90;;;2.70;;
146;SDS011;45999;48.808;9.182;2022-11-20T04:36:06;3.00;;;2.70;;
146;SDS011;45999;48.808;9.182;2022-11-20T04:38:36;3.87;;;2.90;;
146;SDS011;45999;48.808;9.182;2022-11-20T04:41:04;3.10;;;2.80;;
146;SDS011;45999;48.808;9.182;2022-11-20T04:43:32;3.47;;;2.67;;
146;SDS011;45999;48.808;9.182;2022-11-20T04:45:59;3.27;;;2.97;;
146;SDS011;45999;48.808;9.182;2022-11-20T04:48:27;4.10;;;2.80;;
146;SDS011;45999;48.808;9.182;2022-11-20T04:50:55;4.13;;;2.73;;
146;SDS011;45999;48.808;9.182;2022-11-20T04:53:22;3.13;;;2.80;;
146;SDS011;45999;48.808;9.182;2022-11-20T04:55:49;3.93;;;2.50;;
146;SDS011;45999;48.808;9.182;2022-11-20T04:58:15;4.53;;;2.60;;
146;SDS011;45999;48.808;9.182;2022-11-20T05:00:42;4.80;;;2.87;;
146;SDS011;45999;48.808;9.182;2022-11-20T05:03:08;4.00;;;2.63;;
146;SDS011;45999;48.808;9.182;2022-11-20T05:05:34;2.97;;;2.50;;
146;SDS011;45999;48.808;9.182;2022-11-20T05:08:01;2.70;;;2.50;;
146;SDS011;45999;48.808;9.182;2022-11-20T05:10:27;3.17;;;2.57;;
146;SDS011;45999;48.808;9.182;2022-11-20T05:12:54;2.70;;;2.50;;
146;SDS011;45999;48.808;9.182;2022-11-20T05:15:20;3.77;;;2.63;;
146;SDS011;45999;48.808;9.182;2022-11-20T05:17:50;2.53;;;2.20;;
146;SDS011;45999;48.808;9.182;2022-11-20T05:20:18;3.37;;;3.00;;
146;SDS011;45999;48.808;9.182;2022-11-20T05:22:45;3.30;;;3.00;;
146;SDS011;45999;48.808;9.182;2022-11-20T05:25:11;3.30;;;2.43;;
146;SDS011;45999;48.808;9.182;2022-11-20T05:27:38;3.73;;;2.40;;
146;SDS011;45999;48.808;9.182;2022-11-20T05:30:05;2.90;;;2.03;;
146;SDS011;45999;48.808;9.182;2022-11-20T05:32:32;2.63;;;2.40;;
146;SDS011;45999;48.808;9.182;2022-11-20T05:34:58;2.90;;;2.40;;
146;SDS011;45999;48.808;9.182;2022-11-20T05:37:24;2.70;;;2.13;;
146;SDS011;45999;48.808;9.182;2022-11-20T05:39:51;2.60;;;2.13;;
146;SDS011;45999;48.808;9.182;2022-11-20T05:42:17;4.67;;;2.43;;
146;SDS011;45999;48.808;9.182;2022-11-20T05:44:59;2.60;;;2.30;;
146;SDS011;45999;48.808;9.182;2022-11-20T05:47:28;2.73;;;2.50;;
146;SDS011;45999;48.808;9.182;2022-11-20T05:49:57;3.37;;;2.23;;
146;SDS011;45999;48.808;9.182;2022-11-20T05:52:23;2.40;;;2.03;;
146;SDS011;45999;48.808;9.182;2022-11-20T05:54:49;2.63;;;1.93;;
146;SDS011;45999;48.808;9.182;2022-11-20T05:57:16;2.63;;;2.23;;
146;SDS011;45999;48.808;9.182;2022-11-20T05:59:42;4.60;;;2.10;;
146;SDS011;45999;48.808;9.182;2022-11-20T06:02:09;3.73;;;2.30;;
146;SDS011;45999;48.808;9.182;2022-11-20T06:04:35;2.53;;;2.33;;
146;SDS011;45999;48.808;9.182;2022-11-20T06:07:02;2.40;;;2.20;;
146;SDS011;45999;48.808;9.182;2022-11-20T06:09:28;2.50;;;2.30;;
146;SDS011;45999;48.808;9.182;2022-11-20T06:11:55;4.13;;;2.50;;
146;SDS011;45999;48.808;9.182;2022-11-20T06:14:21;2.50;;;2.30;;
146;SDS011;45999;48.808;9.182;2022-11-20T06:16:47;2.17;;;1.80;;
146;SDS011;45999;48.808;9.182;2022-11-20T06:19:14;3.43;;;1.93;;
146;SDS011;45999;48.808;9.182;2022-11-20T06:21:40;3.73;;;2.10;;
146;SDS011;45999;48.808;9.182;2022-11-20T06:24:08;2.73;;;2.00;;
146;SDS011;45999;48.808;9.182;2022-11-20T06:26:35;3.30;;;2.03;;
146;SDS011;45999;48.808;9.182;2022-11-20T06:29:01;2.63;;;2.17;;
146;SDS011;45999;48.808;9.182;2022-11-20T06:31:28;2.47;;;1.80;;
146;SDS011;45999;48.808;9.182;2022-11-20T06:33:57;2.60;;;2.00;;
146;SDS011;45999;48.808;9.182;2022-11-20T06:36:24;2.70;;;2.23;;
146;SDS011;45999;48.808;9.182;2022-11-20T06:38:50;3.37;;;2.30;;
146;SDS011;45999;48.808;9.182;2022-11-20T06:41:18;2.20;;;2.00;;
146;SDS011;45999;48.808;9.182;2022-11-20T06:43:46;2.20;;;2.00;;
146;SDS011;45999;48.808;9.182;2022-11-20T06:46:13;2.17;;;2.00;;
146;SDS011;45999;48.808;9.182;2022-11-20T06:48:42;1.97;;;1.77;;
146;SDS011;45999;48.808;9.182;2022-11-20T06:51:09;1.90;;;1.70;;
146;SDS011;45999;48.808;9.182;2022-11-20T06:53:35;2.03;;;1.70;;
146;SDS011;45999;48.808;9.182;2022-11-20T06:56:02;2.47;;;1.57;;
146;SDS011;45999;48.808;9.182;2022-11-20T06:58:30;2.07;;;1.60;;
146;SDS011;45999;48.808;9.182;2022-11-20T07:01:08;2.83;;;1.70;;
146;SDS011;45999;48.808;9.182;2022-11-20T07:03:36;1.50;;;1.40;;
146;SDS011;45999;48.808;9.182;2022-11-20T07:06:03;3.57;;;1.70;;
146;SDS011;45999;48.808;9.182;2022-11-20T07:08:31;2.33;;;1.43;;
146;SDS011;45999;48.808;9.182;2022-11-20T07:10:58;1.70;;;1.60;;
146;SDS011;45999;48.808;9.182;2022-11-20T07:13:26;1.40;;;1.30;;
146;SDS011;45999;48.808;9.182;2022-11-20T07:15:54;1.60;;;1.37;;
146;SDS011;45999;48.808;9.182;2022-11-20T07:18:21;1.83;;;1.40;;
146;SDS011;45999;48.808;9.182;2022-11-20T07:20:47;1.73;;;1.30;;
146;SDS011;45999;48.808;9.182;2022-11-20T07:23:13;2.37;;;1.67;;
146;SDS011;45999;48.808;9.182;2022-11-20T07:25:40;2.10;;;1.70;;
146;SDS011;45999;48.808;9.182;2022-11-20T07:28:06;1.57;;;1.47;;
146;SDS011;45999;48.808;9.182;2022-11-20T07:30:33;2.13;;;1.80;;
146;SDS011;45999;48.808;9.182;2022-11-20T07:32:59;1.57;;;1.40;;
146;SDS011;45999;48.808;9.182;2022-11-20T07:35:26;1.70;;;1.60;;
146;SDS011;45999;48.808;9.182;2022-11-20T07:37:52;2.90;;;1.47;;
146;SDS011;45999;48.808;9.182;2022-11-20T07:40:19;1.50;;;1.33;;
146;SDS011;45999;48.808;9.182;2022-11-20T07:42:49;2.83;;;1.67;;
146;SDS011;45999;48.808;9.182;2022-11-20T07:45:16;2.10;;;1.53;;
146;SDS011;45999;48.808;9.182;2022-11-20T07:47:44;2.07;;;1.50;;
146;SDS011;45999;48.808;9.182;2022-11-20T07:50:10;1.60;;;1.50;;
146;SDS011;45999;48.808;9.182;2022-11-20T07:52:37;2.30;;;1.60;;
146;SDS011;45999;48.808;9.182;2022-11-20T07:55:04;1.70;;;1.60;;
146;SDS011;45999;48.808;9.182;2022-11-20T07:57:30;2.03;;;1.80;;
146;SDS011;45999;48.808;9.182;2022-11-20T07:59:57;1.90;;;1.60;;
146;SDS011;45999;48.808;9.182;2022-11-20T08:02:23;2.73;;;1.80;;
146;SDS011;45999;48.808;9.182;2022-11-20T08:04:51;2.00;;;1.70;;
146;SDS011;45999;48.808;9.182;2022-11-20T08:07:17;1.60;;;1.37;;
146;SDS011;45999;48.808;9.182;2022-11-20T08:09:44;2.17;;;1.30;;
146;SDS011;45999;48.808;9.182;2022-11-20T08:12:19;1.47;;;1.20;;
146;SDS011;45999;48.808;9.182;2022-11-20T08:15:05;2.53;;;1.30;;
146;SDS011;45999;48.808;9.182;2022-11-20T08:17:32;1.57;;;1.10;;
146;SDS011;45999;48.808;9.182;2022-11-20T08:19:58;1.40;;;1.30;;
146;SDS011;45999;48.808;9.182;2022-11-20T08:22:24;1.43;;;1.33;;
146;SDS011;45999;48.808;9.182;2022-11-20T08:24:51;1.00;;;1.00;;
146;SDS011;45999;48.808;9.182;2022-11-20T08:27:17;1.57;;;1.10;;
146;SDS011;45999;48.808;9.182;2022-11-20T08:29:43;2.07;;;1.40;;
146;SDS011;45999;48.808;9.182;2022-11-20T08:32:10;1.63;;;1.00;;
146;SDS011;45999;48.808;9.182;2022-11-20T08:34:36;1.07;;;1.00;;
146;SDS011;45999;48.808;9.182;2022-11-20T08:37:02;1.10;;;0.90;;
146;SDS011;45999;48.808;9.182;2022-11-20T08:39:29;0.90;;;0.90;;
146;SDS011;45999;48.808;9.182;2022-11-20T08:41:55;1.67;;;0.83;;
146;SDS011;45999;48.808;9.182;2022-11-20T08:44:22;1.17;;;0.80;;
146;SDS011;45999;48.808;9.182;2022-11-20T08:46:49;1.57;;;0.80;;
146;SDS011;45999;48.808;9.182;2022-11-20T08:49:16;0.90;;;0.80;;
146;SDS011;45999;48.808;9.182;2022-11-20T08:51:42;0.90;;;0.90;;
146;SDS011;45999;48.808;9.182;2022-11-20T08:54:09;2.50;;;0.77;;
146;SDS011;45999;48.808;9.182;2022-11-20T08:56:36;0.93;;;0.87;;
146;SDS011;45999;48.808;9.182;2022-11-20T08:59:02;1.17;;;0.90;;
146;SDS011;45999;48.808;9.182;2022-11-20T09:01:29;0.70;;;0.70;;
146;SDS011;45999;48.808;9.182;2022-11-20T09:03:55;0.80;;;0.80;;
146;SDS011;45999;48.808;9.182;2022-11-20T09:06:22;0.77;;;0.70;;
146;SDS011;45999;48.808;9.182;2022-11-20T09:08:52;0.73;;;0.67;;
146;SDS011;45999;48.808;9.182;2022-11-20T09:11:19;1.07;;;0.50;;
146;SDS011;45999;48.808;9.182;2022-11-20T09:13:46;1.37;;;0.63;;
146;SDS011;45999;48.808;9.182;2022-11-20T09:16:12;0.87;;;0.50;;
146;SDS011;45999;48.808;9.182;2022-11-20T09:18:38;0.50;;;0.50;;
146;SDS011;45999;48.808;9.182;2022-11-20T09:21:06;1.17;;;0.60;;
146;SDS011;45999;48.808;9.182;2022-11-20T09:23:36;0.70;;;0.70;;
146;SDS011;45999;48.808;9.182;2022-11-20T09:26:04;0.50;;;0.50;;
146;SDS011;45999;48.808;9.182;2022-11-20T09:28:32;0.60;;;0.60;;
146;SDS011;45999;48.808;9.182;2022-11-20T09:30:59;0.60;;;0.60;;
146;SDS011;45999;48.808;9.182;2022-11-20T09:33:25;0.50;;;0.50;;
146;SDS011;45999;48.808;9.182;2022-11-20T09:35:52;0.50;;;0.50;;
146;SDS011;45999;48.808;9.182;2022-11-20T09:38:18;0.90;;;0.57;;
146;SDS011;45999;48.808;9.182;2022-11-20T09:40:56;1.77;;;0.63;;
146;SDS011;45999;48.808;9.182;2022-11-20T09:43:32;0.63;;;0.53;;
146;SDS011;45999;48.808;9.182;2022-11-20T09:46:29;0.60;;;0.60;;
146;SDS011;45999;48.808;9.182;2022-11-20T09:49:22;0.60;;;0.50;;
146;SDS011;45999;48.808;9.182;2022-11-20T09:52:04;0.50;;;0.50;;
146;SDS011;45999;48.808;9.182;2022-11-20T09:54:35;0.50;;;0.50;;
146;SDS011;45999;48.808;9.182;2022-11-20T09:57:08;0.80;;;0.50;;
146;SDS011;45999;48.808;9.182;2022-11-20T10:04:58;0.67;;;0.40;;
146;SDS011;45999;48.808;9.182;2022-11-20T10:10:42;0.50;;;0.50;;
146;SDS011;45999;48.808;9.182;2022-11-20T10:13:20;1.03;;;0.50;;
146;SDS011;45999;48.808;9.182;2022-11-20T10:21:23;0.50;;;0.50;;
146;SDS011;45999;48.808;9.182;2022-11-20T10:29:12;0.60;;;0.50;;
146;SDS011;45999;48.808;9.182;2022-11-20T10:31:45;1.23;;;0.70;;
146;SDS011;45999;48.808;9.182;2022-11-20T10:34:25;0.70;;;0.60;;
146;SDS011;45999;48.808;9.182;2022-11-20T10:36:59;0.67;;;0.60;;
146;SDS011;45999;48.808;9.182;2022-11-20T10:39:36;0.80;;;0.50;;
146;SDS011;45999;48.808;9.182;2022-11-20T10:42:26;0.60;;;0.60;;
146;SDS011;45999;48.808;9.182;2022-11-20T10:45:01;0.60;;;0.60;;
146;SDS011;45999;48.808;9.182;2022-11-20T10:47:36;0.60;;;0.60;;
146;SDS011;45999;48.808;9.182;2022-11-20T10:50:03;0.60;;;0.60;;
146;SDS011;45999;48.808;9.182;2022-11-20T10:52:39;0.70;;;0.70;;
146;SDS011;45999;48.808;9.182;2022-11-20T11:00:51;0.63;;;0.63;;
146;SDS011;45999;48.808;9.182;2022-11-20T11:03:22;0.80;;;0.80;;
146;SDS011;45999;48.808;9.182;2022-11-20T11:06:14;1.70;;;0.90;;
146;SDS011;45999;48.808;9.182;2022-11-20T11:08:46;1.10;;;0.70;;
146;SDS011;45999;48.808;9.182;2022-11-20T11:11:28;1.53;;;0.70;;
146;SDS011;45999;48.808;9.182;2022-11-20T11:14:07;0.93;;;0.80;;
146;SDS011;45999;48.808;9.182;2022-11-20T11:16:40;0.60;;;0.60;;
146;SDS011;45999;48.808;9.182;2022-11-20T11:19:15;1.10;;;1.10;;
146;SDS011;45999;48.808;9.182;2022-11-20T11:22:16;1.70;;;1.00;;
146;SDS011;45999;48.808;9.182;2022-11-20T11:24:43;0.70;;;0.70;;
146;SDS011;45999;48.808;9.182;2022-11-20T11:27:18;0.90;;;0.90;;
146;SDS011;45999;48.808;9.182;2022-11-20T11:29:45;0.97;;;0.97;;
146;SDS011;45999;48.808;9.182;2022-11-20T11:32:13;1.20;;;1.10;;
146;SDS011;45999;48.808;9.182;2022-11-20T11:34:41;1.20;;;1.10;;
146;SDS011;45999;48.808;9.182;2022-11-20T11:37:13;1.40;;;1.20;;
146;SDS011;45999;48.808;9.182;2022-11-20T11:39:43;1.13;;;1.10;;
146;SDS011;45999;48.808;9.182;2022-11-20T11:42:17;1.33;;;1.00;;
146;SDS011;45999;48.808;9.182;2022-11-20T11:44:45;2.20;;;1.30;;
146;SDS011;45999;48.808;9.182;2022-11-20T11:47:37;2.80;;;1.20;;
146;SDS011;45999;48.808;9.182;2022-11-20T11:58:28;1.43;;;1.13;;
146;SDS011;45999;48.808;9.182;2022-11-20T12:03:38;2.93;;;1.53;;
146;SDS011;45999;48.808;9.182;2022-11-20T12:06:10;1.67;;;1.20;;
146;SDS011;45999;48.808;9.182;2022-11-20T12:11:15;2.50;;;1.60;;
146;SDS011;45999;48.808;9.182;2022-11-20T12:14:08;2.07;;;1.10;;
146;SDS011;45999;48.808;9.182;2022-11-20T12:16:48;1.83;;;0.90;;
146;SDS011;45999;48.808;9.182;2022-11-20T12:19:17;2.10;;;1.00;;
146;SDS011;45999;48.808;9.182;2022-11-20T12:21:50;2.30;;;0.87;;
146;SDS011;45999;48.808;9.182;2022-11-20T12:24:39;2.43;;;0.90;;
146;SDS011;45999;48.808;9.182;2022-11-20T12:30:10;1.53;;;0.80;;
146;SDS011;45999;48.808;9.182;2022-11-20T12:59:16;2.67;;;1.00;;
146;SDS011;45999;48.808;9.182;2022-11-20T13:01:55;2.40;;;0.80;;
146;SDS011;45999;48.808;9.182;2022-11-20T13:07:02;1.53;;;0.70;;
146;SDS011;45999;48.808;9.182;2022-11-20T13:09:31;1.67;;;0.80;;
146;SDS011;45999;48.808;9.182;2022-11-20T13:12:06;2.13;;;1.00;;
146;SDS011;45999;48.808;9.182;2022-11-20T13:20:25;0.97;;;0.73;;
146;SDS011;45999;48.808;9.182;2022-11-20T13:22:52;2.30;;;0.95;;
146;SDS011;45999;48.808;9.182;2022-11-20T13:25:25;0.90;;;0.70;;
146;SDS011;45999;48.808;9.182;2022-11-20T13:27:53;1.10;;;0.80;;
146;SDS011;45999;48.808;9.182;2022-11-20T13:30:22;1.17;;;0.67;;
146;SDS011;45999;48.808;9.182;2022-11-20T13:32:52;0.67;;;0.60;;
146;SDS011;45999;48.808;9.182;2022-11-20T13:38:00;1.27;;;0.50;;
146;SDS011;45999;48.808;9.182;2022-11-20T13:40:29;2.57;;;0.60;;
146;SDS011;45999;48.808;9.182;2022-11-20T13:45:29;0.83;;;0.60;;
146;SDS011;45999;48.808;9.182;2022-11-20T13:47:57;0.80;;;0.60;;
146;SDS011;45999;48.808;9.182;2022-11-20T13:56:53;1.17;;;0.80;;
146;SDS011;45999;48.808;9.182;2022-11-20T14:01:24;1.53;;;0.60;;
146;SDS011;45999;48.808;9.182;2022-11-20T14:03:54;1.23;;;0.50;;
146;SDS011;45999;48.808;9.182;2022-11-20T14:06:28;0.53;;;0.50;;
146;SDS011;45999;48.808;9.182;2022-11-20T14:08:57;0.73;;;0.60;;
146;SDS011;45999;48.808;9.182;2022-11-20T14:11:26;1.03;;;0.60;;
146;SDS011;45999;48.808;9.182;2022-11-20T14:14:00;0.90;;;0.60;;
146;SDS011;45999;48.808;9.182;2022-11-20T14:16:39;0.57;;;0.57;;
146;SDS011;45999;48.808;9.182;2022-11-20T14:19:17;1.00;;;0.83;;
146;SDS011;45999;48.808;9.182;2022-11-20T14:21:47;1.27;;;0.80;;
146;SDS011;45999;48.808;9.182;2022-11-20T14:24:19;1.10;;;0.60;;
146;SDS011;45999;48.808;9.182;2022-11-20T14:26:49;0.80;;;0.70;;
146;SDS011;45999;48.808;9.182;2022-11-20T14:29:18;1.70;;;0.70;;
146;SDS011;45999;48.808;9.182;2022-11-20T14:31:48;2.33;;;0.87;;
146;SDS011;45999;48.808;9.182;2022-11-20T14:34:20;0.87;;;0.67;;
146;SDS011;45999;48.808;9.182;2022-11-20T14:36:50;0.87;;;0.80;;
146;SDS011;45999;48.808;9.182;2022-11-20T14:39:22;2.40;;;0.77;;
146;SDS011;45999;48.808;9.182;2022-11-20T14:41:53;1.57;;;0.80;;
146;SDS011;45999;48.808;9.182;2022-11-20T14:44:26;3.40;;;1.20;;
146;SDS011;45999;48.808;9.182;2022-11-20T14:46:56;2.60;;;1.10;;
146;SDS011;45999;48.808;9.182;2022-11-20T14:49:24;2.13;;;1.00;;
146;SDS011;45999;48.808;9.182;2022-11-20T14:51:59;1.90;;;0.83;;
146;SDS011;45999;48.808;9.182;2022-11-20T14:54:46;0.87;;;0.73;;
146;SDS011;45999;48.808;9.182;2022-11-20T14:57:25;1.70;;;0.87;;
146;SDS011;45999;48.808;9.182;2022-11-20T15:02:47;2.37;;;0.80;;
146;SDS011;45999;48.808;9.182;2022-11-20T15:05:16;0.93;;;0.90;;
146;SDS011;45999;48.808;9.182;2022-11-20T15:07:44;1.00;;;0.80;;
146;SDS011;45999;48.808;9.182;2022-11-20T15:10:13;2.17;;;0.80;;
146;SDS011;45999;48.808;9.182;2022-11-20T15:12:49;1.50;;;0.90;;
146;SDS011;45999;48.808;9.182;2022-11-20T15:15:51;1.40;;;0.80;;
146;SDS011;45999;48.808;9.182;2022-11-20T15:18:13;1.67;;;0.97;;
146;SDS011;45999;48.808;9.182;2022-11-20T15:20:41;2.57;;;1.00;;
146;SDS011;45999;48.808;9.182;2022-11-20T15:23:13;3.40;;;1.00;;
146;SDS011;45999;48.808;9.182;2022-11-20T15:25:43;1.27;;;0.90;;
146;SDS011;45999;48.808;9.182;2022-11-20T15:28:13;2.63;;;0.90;;
146;SDS011;45999;48.808;9.182;2022-11-20T15:30:45;4.03;;;1.07;;
146;SDS011;45999;48.808;9.182;2022-11-20T15:33:13;1.77;;;1.10;;
146;SDS011;45999;48.808;9.182;2022-11-20T15:35:40;3.00;;;1.33;;
146;SDS011;45999;48.808;9.182;2022-11-20T15:38:07;1.90;;;1.10;;
146;SDS011;45999;48.808;9.182;2022-11-20T15:40:33;1.97;;;1.30;;
146;SDS011;45999;48.808;9.182;2022-11-20T15:42:59;3.07;;;1.43;;
146;SDS011;45999;48.808;9.182;2022-11-20T15:45:50;2.30;;;1.20;;
146;SDS011;45999;48.808;9.182;2022-11-20T15:48:18;1.87;;;1.27;;
146;SDS011;45999;48.808;9.182;2022-11-20T15:50:49;3.53;;;1.20;;
146;SDS011;45999;48.808;9.182;2022-11-20T15:53:19;3.23;;;1.30;;
146;SDS011;45999;48.808;9.182;2022-11-20T15:55:46;2.53;;;1.30;;
146;SDS011;45999;48.808;9.182;2022-11-20T15:58:12;3.57;;;1.33;;
146;SDS011;45999;48.808;9.182;2022-11-20T16:00:39;3.27;;;1.47;;
146;SDS011;45999;48.808;9.182;2022-11-20T16:03:05;1.90;;;1.40;;
146;SDS011;45999;48.808;9.182;2022-11-20T16:05:34;1.83;;;1.63;;
146;SDS011;45999;48.808;9.182;2022-11-20T16:08:01;2.13;;;1.20;;
146;SDS011;45999;48.808;9.182;2022-11-20T16:10:27;2.27;;;1.30;;
146;SDS011;45999;48.808;9.182;2022-11-20T16:12:54;3.17;;;1.43;;
146;SDS011;45999;48.808;9.182;2022-11-20T16:15:37;2.33;;;1.30;;
146;SDS011;45999;48.808;9.182;2022-11-20T16:18:14;2.40;;;1.50;;
146;SDS011;45999;48.808;9.182;2022-11-20T16:20:43;2.53;;;1.30;;
146;SDS011;45999;48.808;9.182;2022-11-20T16:23:10;2.23;;;1.20;;
146;SDS011;45999;48.808;9.182;2022-11-20T16:25:37;2.50;;;1.30;;
146;SDS011;45999;48.808;9.182;2022-11-20T16:28:03;2.33;;;1.57;;
146;SDS011;45999;48.808;9.182;2022-11-20T16:30:31;5.50;;;1.70;;
146;SDS011;45999;48.808;9.182;2022-11-20T16:32:58;1.60;;;1.50;;
146;SDS011;45999;48.808;9.182;2022-11-20T16:35:29;2.77;;;1.70;;
146;SDS011;45999;48.808;9.182;2022-11-20T16:37:56;3.40;;;2.00;;
146;SDS011;45999;48.808;9.182;2022-11-20T16:40:24;2.00;;;1.70;;
146;SDS011;45999;48.808;9.182;2022-11-20T16:42:51;3.43;;;2.00;;
146;SDS011;45999;48.808;9.182;2022-11-20T16:45:17;3.03;;;1.70;;
146;SDS011;45999;48.808;9.182;2022-11-20T16:47:44;3.37;;;1.80;;
146;SDS011;45999;48.808;9.182;2022-11-20T16:50:10;2.20;;;1.77;;
146;SDS011;45999;48.808;9.182;2022-11-20T16:52:37;2.00;;;1.80;;
146;SDS011;45999;48.808;9.182;2022-11-20T16:55:03;2.67;;;2.00;;
146;SDS011;45999;48.808;9.182;2022-11-20T16:57:30;2.90;;;2.00;;
146;SDS011;45999;48.808;9.182;2022-11-20T16:59:57;2.27;;;1.70;;
146;SDS011;45999;48.808;9.182;2022-11-20T17:02:27;3.93;;;1.90;;
146;SDS011;45999;48.808;9.182;2022-11-20T17:04:53;1.97;;;1.77;;
146;SDS011;45999;48.808;9.182;2022-11-20T17:07:19;2.50;;;1.67;;